sensor_id;sensor_type;location;lat;lon;timestamp;P1;durP1;ratioP1;P2;durP2;ratioP2
71423;SDS011;59240;51.370;-0.486;2023-05-15T00:00:23;8.13;;;2.53;;
71423;SDS011;59240;51.370;-0.486;2023-05-15T00:02:49;11.67;;;3.00;;
71423;SDS011;59240;51.370;-0.486;2023-05-15T00:05:16;7.00;;;2.42;;
71423;SDS011;59240;51.370;-0.486;2023-05-15T00:07:42;5.50;;;2.00;;
71423;SDS011;59240;51.370;-0.486;2023-05-15T00:10:09;6.78;;;2.22;;
71423;SDS011;59240;51.370;-0.486;2023-05-15T00:12:36;8.05;;;2.30;;
71423;SDS011;59240;51.370;-0.486;2023-05-15T00:15:02;6.60;;;2.30;;
71423;SDS011;59240;51.370;-0.486;2023-05-15T00:17:29;8.57;;;2.75;;
71423;SDS011;59240;51.370;-0.486;2023-05-15T00:19:55;7.03;;;2.50;;
71423;SDS011;59240;51.370;-0.486;2023-05-15T00:22:24;6.75;;;2.45;;
71423;SDS011;59240;51.370;-0.486;2023-05-15T00:24:51;6.13;;;2.40;;
71423;SDS011;59240;51.370;-0.486;2023-05-15T00:27:18;8.77;;;2.30;;
71423;SDS011;59240;51.370;-0.486;2023-05-15T00:29:44;9.27;;;2.45;;
71423;SDS011;59240;51.370;-0.486;2023-05-15T00:32:11;6.13;;;2.17;;
71423;SDS011;59240;51.370;-0.486;2023-05-15T00:34:37;7.15;;;2.28;;
71423;SDS011;59240;51.370;-0.486;2023-05-15T00:37:04;5.78;;;2.20;;
71423;SDS011;59240;51.370;-0.486;2023-05-15T00:39:31;8.00;;;2.43;;
71423;SDS011;59240;51.370;-0.486;2023-05-15T00:41:57;7.03;;;2.55;;
71423;SDS011;59240;51.370;-0.486;2023-05-15T00:44:27;6.70;;;2.92;;
71423;SDS011;59240;51.370;-0.486;2023-05-15T00:46:56;6.53;;;2.13;;
71423;SDS011;59240;51.370;-0.486;2023-05-15T00:49:24;6.43;;;2.40;;
71423;SDS011;59240;51.370;-0.486;2023-05-15T00:51:57;7.73;;;3.17;;
71423;SDS011;59240;51.370;-0.486;2023-05-15T00:54:27;7.55;;;2.40;;
71423;SDS011;59240;51.370;-0.486;2023-05-15T00:56:56;5.75;;;2.33;;
71423;SDS011;59240;51.370;-0.486;2023-05-15T00:59:25;6.40;;;2.45;;
71423;SDS011;59240;51.370;-0.486;2023-05-15T01:01:53;7.93;;;2.30;;
71423;SDS011;59240;51.370;-0.486;2023-05-15T01:04:20;9.17;;;2.27;;
71423;SDS011;59240;51.370;-0.486;2023-05-15T01:06:47;7.15;;;2.20;;
71423;SDS011;59240;51.370;-0.486;2023-05-15T01:09:14;7.28;;;2.17;;
71423;SDS011;59240;51.370;-0.486;2023-05-15T01:11:41;8.65;;;2.40;;
71423;SDS011;59240;51.370;-0.486;2023-05-15T01:14:09;6.07;;;2.40;;
71423;SDS011;59240;51.370;-0.486;2023-05-15T01:16:36;6.87;;;2.37;;
71423;SDS011;59240;51.370;-0.486;2023-05-15T01:19:03;6.13;;;2.30;;
71423;SDS011;59240;51.370;-0.486;2023-05-15T01:29:32;6.37;;;2.23;;
71423;SDS011;59240;51.370;-0.486;2023-05-15T01:32:49;6.97;;;2.33;;
71423;SDS011;59240;51.370;-0.486;2023-05-15T01:35:22;7.82;;;2.80;;
71423;SDS011;59240;51.370;-0.486;2023-05-15T01:38:01;5.65;;;1.92;;
71423;SDS011;59240;51.370;-0.486;2023-05-15T01:40:38;7.38;;;2.30;;
71423;SDS011;59240;51.370;-0.486;2023-05-15T01:43:07;6.93;;;2.30;;
71423;SDS011;59240;51.370;-0.486;2023-05-15T01:45:35;6.65;;;2.17;;
71423;SDS011;59240;51.370;-0.486;2023-05-15T01:48:03;6.03;;;2.10;;
71423;SDS011;59240;51.370;-0.486;2023-05-15T01:50:33;7.35;;;2.20;;
71423;SDS011;59240;51.370;-0.486;2023-05-15T01:53:02;5.95;;;2.20;;
71423;SDS011;59240;51.370;-0.486;2023-05-15T01:55:30;6.17;;;2.30;;
71423;SDS011;59240;51.370;-0.486;2023-05-15T01:57:59;8.55;;;2.08;;
71423;SDS011;59240;51.370;-0.486;2023-05-15T02:00:27;6.03;;;2.05;;
71423;SDS011;59240;51.370;-0.486;2023-05-15T02:02:55;8.00;;;2.00;;
71423;SDS011;59240;51.370;-0.486;2023-05-15T02:05:22;6.40;;;2.38;;
71423;SDS011;59240;51.370;-0.486;2023-05-15T02:07:51;7.60;;;1.93;;
71423;SDS011;59240;51.370;-0.486;2023-05-15T02:10:18;6.22;;;1.67;;
71423;SDS011;59240;51.370;-0.486;2023-05-15T02:12:47;4.82;;;1.33;;
71423;SDS011;59240;51.370;-0.486;2023-05-15T02:15:15;6.00;;;1.77;;
71423;SDS011;59240;51.370;-0.486;2023-05-15T02:17:42;4.68;;;1.50;;
71423;SDS011;59240;51.370;-0.486;2023-05-15T02:20:09;19.13;;;2.30;;
71423;SDS011;59240;51.370;-0.486;2023-05-15T02:22:37;4.78;;;1.60;;
71423;SDS011;59240;51.370;-0.486;2023-05-15T02:25:03;14.38;;;2.40;;
71423;SDS011;59240;51.370;-0.486;2023-05-15T02:27:37;5.93;;;1.60;;
71423;SDS011;59240;51.370;-0.486;2023-05-15T02:30:41;10.25;;;1.80;;
71423;SDS011;59240;51.370;-0.486;2023-05-15T02:33:20;5.23;;;1.60;;
71423;SDS011;59240;51.370;-0.486;2023-05-15T02:36:04;7.28;;;1.83;;
71423;SDS011;59240;51.370;-0.486;2023-05-15T02:38:51;5.75;;;2.10;;
71423;SDS011;59240;51.370;-0.486;2023-05-15T02:41:19;6.20;;;2.42;;
71423;SDS011;59240;51.370;-0.486;2023-05-15T02:43:47;6.07;;;2.55;;
71423;SDS011;59240;51.370;-0.486;2023-05-15T02:46:16;5.90;;;2.33;;
71423;SDS011;59240;51.370;-0.486;2023-05-15T02:48:44;6.68;;;2.60;;
71423;SDS011;59240;51.370;-0.486;2023-05-15T02:51:12;6.97;;;2.58;;
71423;SDS011;59240;51.370;-0.486;2023-05-15T02:53:40;6.90;;;3.15;;
71423;SDS011;59240;51.370;-0.486;2023-05-15T02:56:07;6.57;;;2.38;;
71423;SDS011;59240;51.370;-0.486;2023-05-15T02:58:34;6.27;;;2.50;;
71423;SDS011;59240;51.370;-0.486;2023-05-15T03:01:02;8.35;;;3.40;;
71423;SDS011;59240;51.370;-0.486;2023-05-15T03:03:29;8.38;;;3.58;;
71423;SDS011;59240;51.370;-0.486;2023-05-15T03:05:56;8.30;;;3.55;;
71423;SDS011;59240;51.370;-0.486;2023-05-15T03:08:23;7.72;;;3.15;;
71423;SDS011;59240;51.370;-0.486;2023-05-15T03:10:49;7.27;;;3.33;;
71423;SDS011;59240;51.370;-0.486;2023-05-15T03:13:16;8.07;;;3.35;;
71423;SDS011;59240;51.370;-0.486;2023-05-15T03:15:43;7.30;;;3.67;;
71423;SDS011;59240;51.370;-0.486;2023-05-15T03:18:10;7.85;;;3.50;;
71423;SDS011;59240;51.370;-0.486;2023-05-15T03:20:37;8.73;;;3.75;;
71423;SDS011;59240;51.370;-0.486;2023-05-15T03:23:04;8.53;;;4.30;;
71423;SDS011;59240;51.370;-0.486;2023-05-15T03:25:30;10.00;;;4.15;;
71423;SDS011;59240;51.370;-0.486;2023-05-15T03:27:57;9.57;;;4.50;;
71423;SDS011;59240;51.370;-0.486;2023-05-15T03:30:23;10.93;;;4.40;;
71423;SDS011;59240;51.370;-0.486;2023-05-15T03:32:50;9.82;;;4.45;;
71423;SDS011;59240;51.370;-0.486;2023-05-15T03:35:16;9.47;;;4.67;;
71423;SDS011;59240;51.370;-0.486;2023-05-15T03:37:43;10.75;;;4.20;;
71423;SDS011;59240;51.370;-0.486;2023-05-15T03:40:10;9.90;;;4.07;;
71423;SDS011;59240;51.370;-0.486;2023-05-15T03:42:37;7.25;;;3.25;;
71423;SDS011;59240;51.370;-0.486;2023-05-15T03:45:03;9.57;;;3.90;;
71423;SDS011;59240;51.370;-0.486;2023-05-15T03:47:30;8.73;;;3.50;;
71423;SDS011;59240;51.370;-0.486;2023-05-15T03:49:57;8.38;;;3.92;;
71423;SDS011;59240;51.370;-0.486;2023-05-15T03:52:23;10.57;;;3.58;;
71423;SDS011;59240;51.370;-0.486;2023-05-15T03:54:50;14.05;;;4.43;;
71423;SDS011;59240;51.370;-0.486;2023-05-15T03:57:17;11.82;;;4.07;;
71423;SDS011;59240;51.370;-0.486;2023-05-15T03:59:43;10.17;;;3.93;;
71423;SDS011;59240;51.370;-0.486;2023-05-15T04:02:10;10.80;;;4.80;;
71423;SDS011;59240;51.370;-0.486;2023-05-15T04:04:36;10.95;;;4.35;;
71423;SDS011;59240;51.370;-0.486;2023-05-15T04:07:04;11.13;;;4.40;;
71423;SDS011;59240;51.370;-0.486;2023-05-15T04:09:31;9.90;;;3.45;;
71423;SDS011;59240;51.370;-0.486;2023-05-15T04:11:57;9.27;;;3.13;;
71423;SDS011;59240;51.370;-0.486;2023-05-15T04:14:24;9.80;;;3.00;;
71423;SDS011;59240;51.370;-0.486;2023-05-15T04:16:50;8.40;;;2.15;;
71423;SDS011;59240;51.370;-0.486;2023-05-15T04:19:17;11.15;;;2.22;;
71423;SDS011;59240;51.370;-0.486;2023-05-15T04:21:44;8.25;;;2.17;;
71423;SDS011;59240;51.370;-0.486;2023-05-15T04:24:10;9.13;;;2.53;;
71423;SDS011;59240;51.370;-0.486;2023-05-15T04:26:37;8.98;;;2.67;;
71423;SDS011;59240;51.370;-0.486;2023-05-15T04:29:04;6.13;;;1.70;;
71423;SDS011;59240;51.370;-0.486;2023-05-15T04:31:31;7.30;;;1.90;;
71423;SDS011;59240;51.370;-0.486;2023-05-15T04:33:58;10.18;;;1.88;;
71423;SDS011;59240;51.370;-0.486;2023-05-15T04:36:24;10.17;;;1.80;;
71423;SDS011;59240;51.370;-0.486;2023-05-15T04:38:51;10.55;;;1.83;;
71423;SDS011;59240;51.370;-0.486;2023-05-15T04:41:17;9.50;;;1.60;;
71423;SDS011;59240;51.370;-0.486;2023-05-15T04:43:44;9.30;;;1.63;;
71423;SDS011;59240;51.370;-0.486;2023-05-15T04:46:11;10.63;;;1.60;;
71423;SDS011;59240;51.370;-0.486;2023-05-15T04:48:38;11.57;;;1.83;;
71423;SDS011;59240;51.370;-0.486;2023-05-15T04:51:04;10.32;;;1.70;;
71423;SDS011;59240;51.370;-0.486;2023-05-15T04:53:31;8.65;;;1.70;;
71423;SDS011;59240;51.370;-0.486;2023-05-15T04:55:57;7.07;;;1.50;;
71423;SDS011;59240;51.370;-0.486;2023-05-15T04:58:24;10.98;;;1.77;;
71423;SDS011;59240;51.370;-0.486;2023-05-15T05:00:50;10.93;;;1.60;;
71423;SDS011;59240;51.370;-0.486;2023-05-15T05:03:17;8.82;;;1.65;;
71423;SDS011;59240;51.370;-0.486;2023-05-15T05:05:43;11.40;;;1.92;;
71423;SDS011;59240;51.370;-0.486;2023-05-15T05:08:10;8.18;;;1.80;;
71423;SDS011;59240;51.370;-0.486;2023-05-15T05:10:36;11.27;;;1.92;;
71423;SDS011;59240;51.370;-0.486;2023-05-15T05:13:03;11.10;;;1.80;;
71423;SDS011;59240;51.370;-0.486;2023-05-15T05:15:29;9.30;;;1.98;;
71423;SDS011;59240;51.370;-0.486;2023-05-15T05:17:56;12.00;;;2.03;;
71423;SDS011;59240;51.370;-0.486;2023-05-15T05:20:23;11.15;;;2.20;;
71423;SDS011;59240;51.370;-0.486;2023-05-15T05:22:49;10.50;;;1.90;;
71423;SDS011;59240;51.370;-0.486;2023-05-15T05:25:16;10.87;;;1.73;;
71423;SDS011;59240;51.370;-0.486;2023-05-15T05:27:42;8.48;;;1.35;;
71423;SDS011;59240;51.370;-0.486;2023-05-15T05:30:09;9.75;;;1.77;;
71423;SDS011;59240;51.370;-0.486;2023-05-15T05:32:36;11.32;;;2.17;;
71423;SDS011;59240;51.370;-0.486;2023-05-15T05:35:03;8.48;;;1.50;;
71423;SDS011;59240;51.370;-0.486;2023-05-15T05:37:30;9.97;;;1.60;;
71423;SDS011;59240;51.370;-0.486;2023-05-15T05:39:57;8.27;;;1.67;;
71423;SDS011;59240;51.370;-0.486;2023-05-15T05:42:24;10.77;;;1.60;;
71423;SDS011;59240;51.370;-0.486;2023-05-15T05:44:50;8.10;;;1.65;;
71423;SDS011;59240;51.370;-0.486;2023-05-15T05:47:17;8.73;;;1.58;;
71423;SDS011;59240;51.370;-0.486;2023-05-15T05:49:43;10.23;;;1.43;;
71423;SDS011;59240;51.370;-0.486;2023-05-15T05:52:13;6.82;;;1.42;;
71423;SDS011;59240;51.370;-0.486;2023-05-15T05:54:41;10.35;;;2.08;;
71423;SDS011;59240;51.370;-0.486;2023-05-15T05:57:10;8.43;;;1.50;;
71423;SDS011;59240;51.370;-0.486;2023-05-15T05:59:37;10.18;;;1.70;;
71423;SDS011;59240;51.370;-0.486;2023-05-15T06:02:04;12.03;;;1.40;;
71423;SDS011;59240;51.370;-0.486;2023-05-15T06:04:31;11.10;;;1.45;;
71423;SDS011;59240;51.370;-0.486;2023-05-15T06:07:01;9.93;;;1.83;;
71423;SDS011;59240;51.370;-0.486;2023-05-15T06:09:28;7.45;;;0.95;;
71423;SDS011;59240;51.370;-0.486;2023-05-15T06:11:55;10.40;;;1.45;;
71423;SDS011;59240;51.370;-0.486;2023-05-15T06:14:22;11.60;;;1.60;;
71423;SDS011;59240;51.370;-0.486;2023-05-15T06:16:48;8.55;;;1.33;;
71423;SDS011;59240;51.370;-0.486;2023-05-15T06:19:15;9.82;;;1.40;;
71423;SDS011;59240;51.370;-0.486;2023-05-15T06:21:42;10.85;;;1.50;;
71423;SDS011;59240;51.370;-0.486;2023-05-15T06:24:08;11.23;;;1.38;;
71423;SDS011;59240;51.370;-0.486;2023-05-15T06:26:35;15.23;;;2.53;;
71423;SDS011;59240;51.370;-0.486;2023-05-15T06:29:01;8.13;;;1.90;;
71423;SDS011;59240;51.370;-0.486;2023-05-15T06:31:28;10.13;;;1.10;;
71423;SDS011;59240;51.370;-0.486;2023-05-15T06:33:54;6.45;;;0.63;;
71423;SDS011;59240;51.370;-0.486;2023-05-15T06:36:21;8.73;;;0.98;;
71423;SDS011;59240;51.370;-0.486;2023-05-15T06:38:47;9.47;;;1.40;;
71423;SDS011;59240;51.370;-0.486;2023-05-15T06:41:14;9.70;;;1.35;;
71423;SDS011;59240;51.370;-0.486;2023-05-15T06:43:41;8.40;;;0.80;;
71423;SDS011;59240;51.370;-0.486;2023-05-15T06:46:07;10.98;;;1.38;;
71423;SDS011;59240;51.370;-0.486;2023-05-15T06:48:34;8.85;;;0.73;;
71423;SDS011;59240;51.370;-0.486;2023-05-15T06:51:01;10.53;;;1.00;;
71423;SDS011;59240;51.370;-0.486;2023-05-15T06:53:28;9.23;;;0.73;;
71423;SDS011;59240;51.370;-0.486;2023-05-15T06:55:55;9.75;;;1.00;;
71423;SDS011;59240;51.370;-0.486;2023-05-15T06:58:21;6.30;;;0.85;;
71423;SDS011;59240;51.370;-0.486;2023-05-15T07:00:48;6.85;;;0.90;;
71423;SDS011;59240;51.370;-0.486;2023-05-15T07:03:14;12.60;;;1.60;;
71423;SDS011;59240;51.370;-0.486;2023-05-15T07:05:41;6.95;;;0.88;;
71423;SDS011;59240;51.370;-0.486;2023-05-15T07:08:08;5.22;;;0.60;;
71423;SDS011;59240;51.370;-0.486;2023-05-15T07:10:35;6.50;;;0.90;;
71423;SDS011;59240;51.370;-0.486;2023-05-15T07:13:01;6.43;;;0.63;;
71423;SDS011;59240;51.370;-0.486;2023-05-15T07:15:28;6.87;;;0.87;;
71423;SDS011;59240;51.370;-0.486;2023-05-15T07:17:54;7.00;;;0.80;;
71423;SDS011;59240;51.370;-0.486;2023-05-15T07:20:21;7.28;;;0.93;;
71423;SDS011;59240;51.370;-0.486;2023-05-15T07:22:49;8.00;;;1.10;;
71423;SDS011;59240;51.370;-0.486;2023-05-15T07:25:22;9.05;;;0.65;;
71423;SDS011;59240;51.370;-0.486;2023-05-15T07:27:50;7.27;;;0.87;;
71423;SDS011;59240;51.370;-0.486;2023-05-15T07:30:17;6.22;;;0.80;;
71423;SDS011;59240;51.370;-0.486;2023-05-15T07:32:43;4.50;;;0.70;;
71423;SDS011;59240;51.370;-0.486;2023-05-15T07:35:10;7.60;;;1.08;;
71423;SDS011;59240;51.370;-0.486;2023-05-15T07:37:37;9.23;;;1.27;;
71423;SDS011;59240;51.370;-0.486;2023-05-15T07:40:04;4.67;;;0.70;;
71423;SDS011;59240;51.370;-0.486;2023-05-15T07:42:31;7.22;;;0.90;;
71423;SDS011;59240;51.370;-0.486;2023-05-15T07:44:58;7.15;;;1.17;;
71423;SDS011;59240;51.370;-0.486;2023-05-15T07:47:25;6.80;;;0.77;;
71423;SDS011;59240;51.370;-0.486;2023-05-15T07:49:51;6.03;;;0.70;;
71423;SDS011;59240;51.370;-0.486;2023-05-15T07:52:18;6.77;;;0.70;;
71423;SDS011;59240;51.370;-0.486;2023-05-15T07:54:44;9.38;;;0.95;;
71423;SDS011;59240;51.370;-0.486;2023-05-15T07:57:11;8.98;;;1.08;;
71423;SDS011;59240;51.370;-0.486;2023-05-15T07:59:38;7.15;;;0.77;;
71423;SDS011;59240;51.370;-0.486;2023-05-15T08:02:05;5.20;;;0.60;;
71423;SDS011;59240;51.370;-0.486;2023-05-15T08:04:32;5.33;;;0.50;;
71423;SDS011;59240;51.370;-0.486;2023-05-15T08:06:59;6.82;;;1.17;;
71423;SDS011;59240;51.370;-0.486;2023-05-15T08:09:25;4.47;;;0.60;;
71423;SDS011;59240;51.370;-0.486;2023-05-15T08:11:54;6.32;;;0.73;;
71423;SDS011;59240;51.370;-0.486;2023-05-15T08:14:21;6.85;;;0.73;;
71423;SDS011;59240;51.370;-0.486;2023-05-15T08:16:48;6.83;;;1.03;;
71423;SDS011;59240;51.370;-0.486;2023-05-15T08:19:16;6.80;;;0.80;;
71423;SDS011;59240;51.370;-0.486;2023-05-15T08:21:43;7.20;;;0.80;;
71423;SDS011;59240;51.370;-0.486;2023-05-15T08:24:09;5.55;;;0.95;;
71423;SDS011;59240;51.370;-0.486;2023-05-15T08:26:37;7.88;;;0.65;;
71423;SDS011;59240;51.370;-0.486;2023-05-15T08:29:04;7.83;;;1.00;;
71423;SDS011;59240;51.370;-0.486;2023-05-15T08:31:30;5.28;;;1.10;;
71423;SDS011;59240;51.370;-0.486;2023-05-15T08:33:57;10.18;;;0.90;;
71423;SDS011;59240;51.370;-0.486;2023-05-15T08:36:23;8.98;;;1.52;;
71423;SDS011;59240;51.370;-0.486;2023-05-15T08:38:50;8.63;;;1.40;;
71423;SDS011;59240;51.370;-0.486;2023-05-15T08:41:59;5.77;;;0.50;;
71423;SDS011;59240;51.370;-0.486;2023-05-15T08:44:25;7.88;;;1.17;;
71423;SDS011;59240;51.370;-0.486;2023-05-15T08:46:53;8.90;;;0.68;;
71423;SDS011;59240;51.370;-0.486;2023-05-15T08:51:59;5.88;;;0.60;;
71423;SDS011;59240;51.370;-0.486;2023-05-15T08:54:26;5.70;;;0.93;;
71423;SDS011;59240;51.370;-0.486;2023-05-15T08:56:53;5.88;;;0.75;;
71423;SDS011;59240;51.370;-0.486;2023-05-15T08:59:19;3.83;;;0.82;;
71423;SDS011;59240;51.370;-0.486;2023-05-15T09:01:47;6.97;;;0.60;;
71423;SDS011;59240;51.370;-0.486;2023-05-15T09:04:15;8.43;;;0.80;;
71423;SDS011;59240;51.370;-0.486;2023-05-15T09:06:42;6.93;;;0.90;;
71423;SDS011;59240;51.370;-0.486;2023-05-15T09:09:09;7.03;;;0.60;;
71423;SDS011;59240;51.370;-0.486;2023-05-15T09:11:42;8.25;;;0.77;;
71423;SDS011;59240;51.370;-0.486;2023-05-15T09:14:10;8.18;;;0.90;;
71423;SDS011;59240;51.370;-0.486;2023-05-15T09:16:37;3.92;;;0.40;;
71423;SDS011;59240;51.370;-0.486;2023-05-15T09:19:04;6.73;;;0.83;;
71423;SDS011;59240;51.370;-0.486;2023-05-15T09:21:32;7.63;;;0.60;;
71423;SDS011;59240;51.370;-0.486;2023-05-15T09:26:41;6.88;;;1.00;;
71423;SDS011;59240;51.370;-0.486;2023-05-15T09:29:08;5.13;;;0.43;;
71423;SDS011;59240;51.370;-0.486;2023-05-15T09:31:35;5.93;;;1.23;;
71423;SDS011;59240;51.370;-0.486;2023-05-15T09:34:02;5.38;;;0.50;;
71423;SDS011;59240;51.370;-0.486;2023-05-15T09:36:30;5.88;;;0.68;;
71423;SDS011;59240;51.370;-0.486;2023-05-15T09:38:58;6.35;;;0.60;;
71423;SDS011;59240;51.370;-0.486;2023-05-15T09:41:26;4.97;;;0.50;;
71423;SDS011;59240;51.370;-0.486;2023-05-15T09:43:54;8.17;;;0.97;;
71423;SDS011;59240;51.370;-0.486;2023-05-15T09:46:22;8.00;;;0.85;;
71423;SDS011;59240;51.370;-0.486;2023-05-15T09:48:52;5.40;;;0.80;;
71423;SDS011;59240;51.370;-0.486;2023-05-15T09:51:20;4.90;;;0.40;;
71423;SDS011;59240;51.370;-0.486;2023-05-15T09:53:48;7.13;;;0.60;;
71423;SDS011;59240;51.370;-0.486;2023-05-15T09:56:17;8.03;;;0.60;;
71423;SDS011;59240;51.370;-0.486;2023-05-15T09:58:51;5.90;;;0.60;;
71423;SDS011;59240;51.370;-0.486;2023-05-15T10:01:19;7.15;;;0.50;;
71423;SDS011;59240;51.370;-0.486;2023-05-15T10:06:44;3.85;;;0.50;;
71423;SDS011;59240;51.370;-0.486;2023-05-15T10:09:12;7.43;;;0.70;;
71423;SDS011;59240;51.370;-0.486;2023-05-15T10:11:41;5.75;;;0.50;;
71423;SDS011;59240;51.370;-0.486;2023-05-15T10:14:09;5.50;;;0.50;;
71423;SDS011;59240;51.370;-0.486;2023-05-15T10:16:37;5.15;;;0.50;;
71423;SDS011;59240;51.370;-0.486;2023-05-15T10:19:08;5.00;;;0.57;;
71423;SDS011;59240;51.370;-0.486;2023-05-15T10:21:36;4.07;;;0.40;;
71423;SDS011;59240;51.370;-0.486;2023-05-15T10:24:07;7.25;;;0.70;;
71423;SDS011;59240;51.370;-0.486;2023-05-15T10:26:38;7.25;;;0.90;;
71423;SDS011;59240;51.370;-0.486;2023-05-15T10:29:07;6.15;;;0.75;;
71423;SDS011;59240;51.370;-0.486;2023-05-15T10:31:35;4.72;;;0.50;;
71423;SDS011;59240;51.370;-0.486;2023-05-15T10:34:03;4.60;;;0.60;;
71423;SDS011;59240;51.370;-0.486;2023-05-15T10:36:30;8.65;;;0.90;;
71423;SDS011;59240;51.370;-0.486;2023-05-15T10:39:02;6.28;;;0.43;;
71423;SDS011;59240;51.370;-0.486;2023-05-15T10:41:31;7.55;;;0.80;;
71423;SDS011;59240;51.370;-0.486;2023-05-15T10:44:01;4.25;;;0.52;;
71423;SDS011;59240;51.370;-0.486;2023-05-15T10:46:28;6.80;;;0.70;;
71423;SDS011;59240;51.370;-0.486;2023-05-15T10:48:58;8.70;;;1.20;;
71423;SDS011;59240;51.370;-0.486;2023-05-15T10:51:27;8.05;;;1.63;;
71423;SDS011;59240;51.370;-0.486;2023-05-15T10:53:55;9.27;;;2.45;;
71423;SDS011;59240;51.370;-0.486;2023-05-15T10:56:29;10.60;;;2.85;;
71423;SDS011;59240;51.370;-0.486;2023-05-15T10:58:57;9.83;;;2.67;;
71423;SDS011;59240;51.370;-0.486;2023-05-15T11:01:36;6.95;;;2.10;;
71423;SDS011;59240;51.370;-0.486;2023-05-15T11:06:31;6.75;;;1.08;;
71423;SDS011;59240;51.370;-0.486;2023-05-15T11:14:18;11.88;;;0.90;;
71423;SDS011;59240;51.370;-0.486;2023-05-15T11:19:21;9.70;;;1.70;;
71423;SDS011;59240;51.370;-0.486;2023-05-15T11:21:56;6.72;;;1.10;;
71423;SDS011;59240;51.370;-0.486;2023-05-15T11:24:26;5.57;;;0.90;;
71423;SDS011;59240;51.370;-0.486;2023-05-15T11:27:00;8.55;;;1.13;;
71423;SDS011;59240;51.370;-0.486;2023-05-15T11:29:28;10.75;;;0.82;;
71423;SDS011;59240;51.370;-0.486;2023-05-15T11:31:54;5.10;;;0.77;;
71423;SDS011;59240;51.370;-0.486;2023-05-15T11:34:33;4.68;;;0.50;;
71423;SDS011;59240;51.370;-0.486;2023-05-15T11:37:00;7.40;;;1.00;;
71423;SDS011;59240;51.370;-0.486;2023-05-15T11:39:27;5.70;;;0.95;;
71423;SDS011;59240;51.370;-0.486;2023-05-15T11:41:54;7.28;;;0.90;;
71423;SDS011;59240;51.370;-0.486;2023-05-15T11:44:21;5.97;;;0.68;;
71423;SDS011;59240;51.370;-0.486;2023-05-15T11:46:49;6.45;;;0.80;;
71423;SDS011;59240;51.370;-0.486;2023-05-15T11:49:17;4.90;;;0.80;;
71423;SDS011;59240;51.370;-0.486;2023-05-15T11:51:46;3.42;;;0.80;;
71423;SDS011;59240;51.370;-0.486;2023-05-15T11:54:13;6.20;;;0.82;;
71423;SDS011;59240;51.370;-0.486;2023-05-15T11:56:40;5.68;;;0.65;;
71423;SDS011;59240;51.370;-0.486;2023-05-15T11:59:12;5.85;;;0.88;;
71423;SDS011;59240;51.370;-0.486;2023-05-15T12:01:45;4.33;;;0.90;;
71423;SDS011;59240;51.370;-0.486;2023-05-15T12:04:15;7.30;;;0.80;;
71423;SDS011;59240;51.370;-0.486;2023-05-15T12:06:46;5.22;;;0.80;;
71423;SDS011;59240;51.370;-0.486;2023-05-15T12:09:15;5.38;;;0.70;;
71423;SDS011;59240;51.370;-0.486;2023-05-15T12:11:51;3.67;;;0.40;;
71423;SDS011;59240;51.370;-0.486;2023-05-15T12:14:26;7.80;;;0.80;;
71423;SDS011;59240;51.370;-0.486;2023-05-15T12:16:59;3.15;;;0.60;;
71423;SDS011;59240;51.370;-0.486;2023-05-15T12:19:32;4.95;;;0.70;;
71423;SDS011;59240;51.370;-0.486;2023-05-15T12:22:00;7.40;;;1.20;;
71423;SDS011;59240;51.370;-0.486;2023-05-15T12:24:29;5.97;;;0.80;;
71423;SDS011;59240;51.370;-0.486;2023-05-15T12:26:55;4.33;;;0.93;;
71423;SDS011;59240;51.370;-0.486;2023-05-15T12:29:23;3.67;;;0.80;;
71423;SDS011;59240;51.370;-0.486;2023-05-15T12:31:51;7.75;;;0.82;;
71423;SDS011;59240;51.370;-0.486;2023-05-15T12:34:19;4.60;;;0.80;;
71423;SDS011;59240;51.370;-0.486;2023-05-15T12:36:46;4.15;;;0.50;;
71423;SDS011;59240;51.370;-0.486;2023-05-15T12:39:13;4.70;;;1.07;;
71423;SDS011;59240;51.370;-0.486;2023-05-15T12:41:39;9.93;;;1.20;;
71423;SDS011;59240;51.370;-0.486;2023-05-15T12:44:14;4.78;;;0.88;;
71423;SDS011;59240;51.370;-0.486;2023-05-15T12:46:42;5.15;;;0.55;;
71423;SDS011;59240;51.370;-0.486;2023-05-15T12:49:08;4.93;;;0.60;;
71423;SDS011;59240;51.370;-0.486;2023-05-15T12:51:41;7.60;;;0.70;;
71423;SDS011;59240;51.370;-0.486;2023-05-15T12:54:18;7.78;;;1.00;;
71423;SDS011;59240;51.370;-0.486;2023-05-15T12:56:46;6.68;;;0.75;;
71423;SDS011;59240;51.370;-0.486;2023-05-15T12:59:13;6.85;;;0.85;;
71423;SDS011;59240;51.370;-0.486;2023-05-15T13:01:40;5.05;;;0.70;;
71423;SDS011;59240;51.370;-0.486;2023-05-15T13:04:10;5.37;;;0.60;;
71423;SDS011;59240;51.370;-0.486;2023-05-15T13:06:37;4.40;;;0.50;;
71423;SDS011;59240;51.370;-0.486;2023-05-15T13:09:12;5.82;;;0.60;;
71423;SDS011;59240;51.370;-0.486;2023-05-15T13:11:42;6.15;;;0.50;;
71423;SDS011;59240;51.370;-0.486;2023-05-15T13:14:10;5.75;;;0.73;;
71423;SDS011;59240;51.370;-0.486;2023-05-15T13:16:43;4.40;;;0.60;;
71423;SDS011;59240;51.370;-0.486;2023-05-15T13:19:12;4.63;;;0.60;;
71423;SDS011;59240;51.370;-0.486;2023-05-15T13:21:39;4.07;;;0.30;;
71423;SDS011;59240;51.370;-0.486;2023-05-15T13:24:06;5.35;;;1.08;;
71423;SDS011;59240;51.370;-0.486;2023-05-15T13:26:35;4.68;;;0.63;;
71423;SDS011;59240;51.370;-0.486;2023-05-15T13:29:02;6.80;;;0.60;;
71423;SDS011;59240;51.370;-0.486;2023-05-15T13:31:28;4.18;;;0.63;;
71423;SDS011;59240;51.370;-0.486;2023-05-15T13:33:57;5.70;;;0.40;;
71423;SDS011;59240;51.370;-0.486;2023-05-15T13:36:25;5.05;;;0.60;;
71423;SDS011;59240;51.370;-0.486;2023-05-15T13:38:52;5.63;;;0.80;;
71423;SDS011;59240;51.370;-0.486;2023-05-15T13:41:19;6.53;;;0.90;;
71423;SDS011;59240;51.370;-0.486;2023-05-15T13:43:46;13.52;;;2.88;;
71423;SDS011;59240;51.370;-0.486;2023-05-15T13:46:14;12.63;;;3.13;;
71423;SDS011;59240;51.370;-0.486;2023-05-15T13:48:41;7.13;;;1.00;;
71423;SDS011;59240;51.370;-0.486;2023-05-15T13:51:08;15.73;;;2.83;;
71423;SDS011;59240;51.370;-0.486;2023-05-15T13:53:36;3.37;;;0.50;;
71423;SDS011;59240;51.370;-0.486;2023-05-15T13:56:03;4.95;;;0.70;;
71423;SDS011;59240;51.370;-0.486;2023-05-15T13:58:30;3.83;;;0.60;;
71423;SDS011;59240;51.370;-0.486;2023-05-15T14:00:56;5.00;;;0.77;;
71423;SDS011;59240;51.370;-0.486;2023-05-15T14:03:23;5.55;;;0.55;;
71423;SDS011;59240;51.370;-0.486;2023-05-15T14:05:49;3.97;;;0.50;;
71423;SDS011;59240;51.370;-0.486;2023-05-15T14:08:16;5.60;;;0.65;;
71423;SDS011;59240;51.370;-0.486;2023-05-15T14:10:43;5.10;;;0.63;;
71423;SDS011;59240;51.370;-0.486;2023-05-15T14:13:10;6.97;;;1.55;;
71423;SDS011;59240;51.370;-0.486;2023-05-15T14:15:38;5.78;;;0.50;;
71423;SDS011;59240;51.370;-0.486;2023-05-15T14:18:05;6.00;;;0.97;;
71423;SDS011;59240;51.370;-0.486;2023-05-15T14:20:32;4.10;;;0.50;;
71423;SDS011;59240;51.370;-0.486;2023-05-15T14:22:58;4.38;;;0.52;;
71423;SDS011;59240;51.370;-0.486;2023-05-15T14:25:25;4.05;;;0.47;;
71423;SDS011;59240;51.370;-0.486;2023-05-15T14:27:51;4.75;;;0.60;;
71423;SDS011;59240;51.370;-0.486;2023-05-15T14:30:18;5.13;;;0.70;;
71423;SDS011;59240;51.370;-0.486;2023-05-15T14:32:47;8.50;;;1.48;;
71423;SDS011;59240;51.370;-0.486;2023-05-15T14:35:14;6.40;;;1.00;;
71423;SDS011;59240;51.370;-0.486;2023-05-15T14:37:40;3.60;;;0.40;;
71423;SDS011;59240;51.370;-0.486;2023-05-15T14:40:08;7.78;;;0.70;;
71423;SDS011;59240;51.370;-0.486;2023-05-15T14:42:38;3.97;;;0.60;;
71423;SDS011;59240;51.370;-0.486;2023-05-15T14:45:07;3.90;;;0.70;;
71423;SDS011;59240;51.370;-0.486;2023-05-15T14:47:34;5.70;;;0.82;;
71423;SDS011;59240;51.370;-0.486;2023-05-15T14:50:00;4.50;;;0.68;;
71423;SDS011;59240;51.370;-0.486;2023-05-15T14:52:27;5.88;;;0.65;;
71423;SDS011;59240;51.370;-0.486;2023-05-15T14:54:54;4.37;;;1.13;;
71423;SDS011;59240;51.370;-0.486;2023-05-15T14:57:34;5.68;;;0.65;;
71423;SDS011;59240;51.370;-0.486;2023-05-15T15:00:00;5.43;;;0.73;;
71423;SDS011;59240;51.370;-0.486;2023-05-15T15:02:27;7.55;;;0.50;;
71423;SDS011;59240;51.370;-0.486;2023-05-15T15:04:54;6.20;;;0.88;;